Time;durP1;ratioP1;P1;durP2;ratioP2;P2;SDS_P1;SDS_P2;PMS_P1;PMS_P2;Temp;Humidity;BMP_temperature;BMP_pressure;BME280_temperature;BME280_humidity;BME280_pressure;Samples;Min_cycle;Max_cycle;Signal;HPM_P1;HPM_P2
2022/10/12 00:02:32;;;;;;;34.50;18.67;;;;;;;4.47;65.69;101936.30;1725798;81;20953;-72
2022/10/12 00:05:17;;;;;;;33.18;19.07;;;;;;;4.49;65.71;101938.08;1721856;81;21016;-72
2022/10/12 00:08:02;;;;;;;33.05;18.80;;;;;;;4.47;65.60;101941.01;1724834;81;21359;-72
2022/10/12 00:10:47;;;;;;;42.38;21.07;;;;;;;4.36;65.61;101939.81;1722538;81;20950;-72
2022/10/12 00:13:33;;;;;;;38.35;20.65;;;;;;;4.36;65.77;101943.66;1722731;81;21032;-72
2022/10/12 00:16:21;;;;;;;37.28;20.27;;;;;;;4.37;65.76;101950.92;1722334;81;21033;-72
2022/10/12 00:19:06;;;;;;;38.10;20.08;;;;;;;4.37;65.78;101953.48;1722058;81;20929;-72
2022/10/12 00:21:51;;;;;;;41.88;20.50;;;;;;;4.33;65.71;101951.23;1702429;82;21082;-72
2022/10/12 00:24:36;;;;;;;43.33;22.42;;;;;;;4.28;65.76;101952.79;1700157;82;21041;-72
2022/10/12 00:27:22;;;;;;;39.98;22.50;;;;;;;4.25;65.81;101952.28;1721869;81;20965;-72
2022/10/12 00:30:09;;;;;;;44.75;20.97;;;;;;;4.23;65.83;101956.48;1721399;81;21024;-72
2022/10/12 00:32:53;;;;;;;38.48;19.98;;;;;;;4.20;65.85;101954.23;1699469;82;21560;-72
2022/10/12 00:35:38;;;;;;;42.75;21.00;;;;;;;4.19;65.86;101961.46;1699438;82;21003;-72
2022/10/12 00:38:23;;;;;;;33.05;19.15;;;;;;;4.19;65.85;101960.18;1722534;81;21052;-72
2022/10/12 00:41:09;;;;;;;33.08;18.20;;;;;;;4.19;65.93;101961.05;1719813;81;21089;-72
2022/10/12 00:43:54;;;;;;;38.28;19.80;;;;;;;4.16;65.86;101962.23;1694393;83;21056;-72
2022/10/12 00:46:42;;;;;;;35.17;18.50;;;;;;;4.13;65.90;101961.30;1703294;83;21112;-72
2022/10/12 00:49:28;;;;;;;36.15;18.37;;;;;;;4.12;65.93;101963.40;1709281;82;21141;-72
2022/10/12 00:52:16;;;;;;;38.10;19.55;;;;;;;4.07;65.90;101966.22;1710383;82;21048;-72
2022/10/12 00:55:03;;;;;;;40.95;20.65;;;;;;;3.97;65.93;101967.61;1707806;82;21092;-72
2022/10/12 00:57:52;;;;;;;40.67;21.27;;;;;;;3.89;65.97;101964.80;1712209;82;21690;-72
2022/10/12 01:00:37;;;;;;;43.10;20.85;;;;;;;3.86;66.09;101963.83;1706183;82;21356;-72
2022/10/12 01:03:23;;;;;;;36.23;19.20;;;;;;;3.86;66.15;101958.72;1690923;83;22729;-72
2022/10/12 01:06:08;;;;;;;38.58;20.15;;;;;;;3.87;66.18;101957.48;1681393;85;21056;-72
2022/10/12 01:08:55;;;;;;;56.33;24.47;;;;;;;3.87;66.16;101958.77;1711924;82;21073;-72
2022/10/12 01:11:39;;;;;;;36.85;19.92;;;;;;;3.89;66.17;101958.81;1693227;83;21513;-72
2022/10/12 01:14:26;;;;;;;35.95;18.73;;;;;;;3.90;66.20;101954.16;1691923;83;21120;-72
2022/10/12 01:17:22;;;;;;;39.03;19.67;;;;;;;3.88;66.18;101957.95;1694066;83;20954;-72
2022/10/12 01:20:24;;;;;;;36.83;19.10;;;;;;;3.85;66.21;101954.41;1692173;83;22123;-72
2022/10/12 01:23:17;;;;;;;39.40;18.32;;;;;;;3.87;66.27;101957.89;1693683;81;21109;-72
2022/10/12 01:26:57;;;;;;;34.55;18.50;;;;;;;3.87;66.19;101957.48;1695632;83;21084;-72
2022/10/12 01:30:10;;;;;;;35.10;20.08;;;;;;;3.85;66.22;101959.13;1689979;83;21056;-74
2022/10/12 01:33:34;;;;;;;35.70;19.25;;;;;;;3.85;66.24;101954.00;1692552;83;21068;-74
2022/10/12 01:36:32;;;;;;;38.48;19.67;;;;;;;3.83;66.26;101959.48;1683942;83;21136;-74
2022/10/12 01:39:45;;;;;;;38.23;18.20;;;;;;;3.82;66.25;101959.43;1676263;83;21069;-75
2022/10/12 01:42:35;;;;;;;34.90;20.48;;;;;;;3.79;66.25;101964.03;1701165;83;20950;-75
2022/10/12 01:45:20;;;;;;;36.50;19.67;;;;;;;3.75;66.29;101960.05;1711421;82;20906;-73
2022/10/12 01:48:06;;;;;;;42.30;20.30;;;;;;;3.72;66.34;101958.66;1713151;82;20910;-73
2022/10/12 01:50:54;;;;;;;48.25;21.30;;;;;;;3.68;66.35;101956.41;1709845;82;21072;-72
2022/10/12 01:53:56;;;;;;;33.30;19.07;;;;;;;3.64;66.41;101956.72;1680943;83;21097;-72
2022/10/12 01:56:53;;;;;;;37.05;19.05;;;;;;;3.64;66.42;101957.12;1700626;83;36294;-73
2022/10/12 02:00:01;;;;;;;47.15;19.80;;;;;;;3.60;66.46;101958.74;1690223;83;21510;-72
2022/10/12 02:02:54;;;;;;;40.30;20.68;;;;;;;3.60;66.52;101961.71;1702259;83;21013;-73
2022/10/12 02:06:00;;;;;;;35.92;19.82;;;;;;;3.60;66.49;101962.58;1695886;83;21081;-72
2022/10/12 02:09:08;;;;;;;38.58;18.12;;;;;;;3.60;66.50;101959.15;1706881;82;21596;-72
2022/10/12 02:11:58;;;;;;;36.20;19.85;;;;;;;3.58;66.45;101955.67;1706393;83;21037;-73
2022/10/12 02:14:53;;;;;;;30.37;17.55;;;;;;;3.55;66.55;101970.50;1711907;83;20918;-73
2022/10/12 02:17:41;;;;;;;32.35;17.23;;;;;;;3.49;66.55;101962.63;1711938;83;20974;-73
2022/10/12 02:20:27;;;;;;;35.30;17.82;;;;;;;3.49;66.63;101965.17;1713642;82;20953;-73
2022/10/12 02:23:13;;;;;;;;;;;;;;;3.47;66.63;101962.11;1714063;82;20902;-73
2022/10/12 02:26:00;;;;;;;31.10;16.80;;;;;;;3.48;66.83;101962.16;1685173;83;20187;-73
2022/10/12 02:28:48;;;;;;;44.33;18.57;;;;;;;3.45;66.65;101959.91;1695234;83;20941;-73
2022/10/12 02:31:59;;;;;;;31.48;17.30;;;;;;;3.45;66.70;101963.73;1712793;82;20930;-73
2022/10/12 02:34:51;;;;;;;31.75;17.62;;;;;;;3.46;66.71;101973.16;1679663;83;20974;-73
2022/10/12 02:37:47;;;;;;;31.12;16.30;;;;;;;3.43;66.71;101966.66;1710458;83;20961;-73
2022/10/12 02:40:37;;;;;;;37.88;17.57;;;;;;;3.41;66.72;101958.06;1709102;83;20906;-73
2022/10/12 02:43:40;;;;;;;29.90;17.05;;;;;;;3.40;66.76;101962.30;1714860;82;20941;-73
2022/10/12 02:46:26;;;;;;;28.60;15.70;;;;;;;3.39;66.72;101963.12;1717473;81;20910;-73
2022/10/12 02:49:12;;;;;;;30.72;15.68;;;;;;;3.35;66.72;101958.72;1714512;82;20969;-73
2022/10/12 02:51:58;;;;;;;22.70;15.50;;;;;;;3.34;66.78;101963.36;1718248;82;21045;-74
2022/10/12 02:54:43;;;;;;;25.62;15.98;;;;;;;3.31;66.80;101959.02;1715332;82;21080;-73
2022/10/12 02:57:28;;;;;;;33.75;15.20;;;;;;;3.32;66.79;101963.31;1718368;83;21327;-73
2022/10/12 03:00:16;;;;;;;26.48;15.58;;;;;;;3.30;66.79;101958.96;1716911;82;21119;-73
2022/10/12 03:03:00;;;;;;;32.88;15.38;;;;;;;3.26;66.81;101960.95;1701854;82;20953;-73
2022/10/12 03:05:45;;;;;;;27.13;15.23;;;;;;;3.26;66.88;101961.81;1715727;83;20961;-73
2022/10/12 03:08:30;;;;;;;29.98;16.37;;;;;;;3.27;66.88;101955.89;1718350;83;21044;-73
2022/10/12 03:11:15;;;;;;;32.85;16.15;;;;;;;3.26;66.90;101966.92;1689429;83;21049;-73
2022/10/12 03:14:01;;;;;;;29.75;15.48;;;;;;;3.26;66.91;101965.65;1700665;82;21619;-73
2022/10/12 03:16:47;;;;;;;25.85;14.40;;;;;;;3.21;66.91;101965.02;1702940;82;21060;-73
2022/10/12 03:19:31;;;;;;;28.57;15.63;;;;;;;3.22;67.05;101963.80;1699443;82;21436;-73
2022/10/12 03:22:17;;;;;;;28.73;15.55;;;;;;;3.24;67.06;101969.84;1719884;81;21460;-73
2022/10/12 03:25:02;;;;;;;29.65;15.18;;;;;;;3.22;66.99;101966.77;1718585;81;20993;-72
2022/10/12 03:27:47;;;;;;;31.30;16.40;;;;;;;3.22;67.07;101974.44;1720047;81;21045;-73
2022/10/12 03:30:32;;;;;;;31.05;16.12;;;;;;;3.21;67.02;101974.84;1712852;81;21025;-73
2022/10/12 03:33:17;;;;;;;37.25;15.48;;;;;;;3.20;67.10;101970.55;1717312;83;21101;-73
2022/10/12 03:36:03;;;;;;;29.57;16.70;;;;;;;3.20;67.10;101969.27;1720527;81;21069;-73
2022/10/12 03:38:47;;;;;;;29.85;15.98;;;;;;;3.22;67.09;101974.02;1719706;81;21046;-73
2022/10/12 03:41:32;;;;;;;29.12;15.40;;;;;;;3.19;67.06;101971.36;1719769;83;21098;-73
2022/10/12 03:44:17;;;;;;;31.85;15.20;;;;;;;3.17;67.07;101972.12;1700841;82;21542;-73
2022/10/12 03:47:03;;;;;;;29.55;15.08;;;;;;;3.15;67.08;101975.03;1698526;84;21481;-73
2022/10/12 03:49:48;;;;;;;35.43;16.83;;;;;;;3.11;67.08;101976.63;1717982;83;21112;-73
2022/10/12 03:52:33;;;;;;;25.62;15.18;;;;;;;3.10;67.09;101983.84;1717745;83;21638;-72
2022/10/12 03:55:19;;;;;;;28.00;14.63;;;;;;;3.08;67.19;101985.47;1697409;83;21072;-74
2022/10/12 03:58:04;;;;;;;30.00;16.02;;;;;;;3.06;67.12;101986.23;1692946;82;21065;-73
2022/10/12 04:00:52;;;;;;;28.73;14.43;;;;;;;3.03;67.22;101988.27;1716737;81;21004;-73
2022/10/12 04:03:37;;;;;;;26.12;14.85;;;;;;;3.05;67.27;101984.08;1716751;82;21064;-73
2022/10/12 04:06:22;;;;;;;32.35;15.48;;;;;;;3.07;67.25;101979.89;1718493;82;21021;-73
2022/10/12 04:09:08;;;;;;;32.93;15.10;;;;;;;3.06;67.22;101984.54;1722693;81;21089;-73
2022/10/12 04:11:54;;;;;;;26.00;15.20;;;;;;;3.03;67.19;101989.54;1719145;80;21040;-74
2022/10/12 04:14:39;;;;;;;28.65;15.00;;;;;;;3.02;67.23;101986.92;1717980;81;20973;-72
2022/10/12 04:17:24;;;;;;;28.73;14.80;;;;;;;3.00;67.23;101984.31;1714854;82;21060;-72
2022/10/12 04:20:11;;;;;;;28.60;14.05;;;;;;;2.97;67.28;101985.48;1714280;82;20983;-72
2022/10/12 04:22:55;;;;;;;23.83;14.25;;;;;;;2.96;67.29;101987.16;1716222;82;21615;-72
2022/10/12 04:25:41;;;;;;;27.17;14.55;;;;;;;2.95;67.30;101987.11;1712051;81;20951;-72
2022/10/12 04:28:25;;;;;;;29.55;14.80;;;;;;;2.93;67.30;101992.56;1717323;81;21406;-72
2022/10/12 04:31:10;;;;;;;24.57;14.43;;;;;;;2.94;67.38;101987.52;1718566;83;21482;-72
2022/10/12 04:33:56;;;;;;;28.62;14.80;;;;;;;2.97;67.39;101991.86;1717763;83;21382;-72
2022/10/12 04:36:41;;;;;;;27.10;14.55;;;;;;;2.96;67.35;101988.84;1716576;83;20914;-72
2022/10/12 04:39:26;;;;;;;25.92;13.65;;;;;;;2.96;67.38;101992.68;1718297;81;20942;-72
2022/10/12 04:42:11;;;;;;;28.45;13.50;;;;;;;2.93;67.37;101997.27;1680531;83;21470;-72
2022/10/12 04:44:56;;;;;;;29.92;15.23;;;;;;;2.91;67.39;101989.08;1700218;82;20969;-72
2022/10/12 04:47:40;;;;;;;26.17;13.65;;;;;;;2.92;67.48;101992.10;1717466;82;21005;-72
2022/10/12 04:50:25;;;;;;;24.00;13.35;;;;;;;2.95;67.48;101992.22;1698459;83;21057;-73
2022/10/12 04:53:10;;;;;;;23.70;13.83;;;;;;;2.97;67.50;101991.86;1698440;83;21605;-74
2022/10/12 04:55:56;;;;;;;22.95;13.95;;;;;;;2.99;67.48;101994.94;1716643;83;21000;-75
2022/10/12 04:58:41;;;;;;;35.52;14.60;;;;;;;3.01;67.53;101989.02;1719211;80;21683;-72
2022/10/12 05:01:26;;;;;;;25.77;14.57;;;;;;;3.05;67.52;101995.58;1716458;81;21088;-72
2022/10/12 05:04:11;;;;;;;24.95;13.83;;;;;;;3.04;67.50;101995.52;1718814;81;21061;-72
2022/10/12 05:06:56;;;;;;;24.47;13.68;;;;;;;3.02;67.50;101995.46;1716422;81;21048;-72
2022/10/12 05:09:41;;;;;;;25.00;14.20;;;;;;;3.02;67.54;101992.03;1716818;81;21048;-72
2022/10/12 05:12:27;;;;;;;22.98;13.62;;;;;;;3.04;67.60;102002.78;1697327;82;21127;-72
2022/10/12 05:15:12;;;;;;;25.75;14.98;;;;;;;3.07;67.65;101997.78;1717142;81;21041;-72
2022/10/12 05:17:57;;;;;;;23.10;13.78;;;;;;;3.11;67.66;102002.19;1719023;81;21647;-72
2022/10/12 05:20:43;;;;;;;25.23;14.75;;;;;;;3.11;67.66;102000.91;1718978;81;21337;-72
2022/10/12 05:23:28;;;;;;;32.38;15.20;;;;;;;3.11;67.62;102007.70;1716722;81;28706;-72
2022/10/12 05:26:13;;;;;;;25.80;15.65;;;;;;;3.11;67.68;102006.43;1718864;81;21600;-73
2022/10/12 05:28:58;;;;;;;25.37;14.03;;;;;;;3.15;67.77;102006.56;1719066;81;21045;-72
2022/10/12 05:31:44;;;;;;;26.20;14.87;;;;;;;3.21;67.78;102007.20;1717861;81;21471;-72
2022/10/12 05:34:29;;;;;;;29.92;13.72;;;;;;;3.29;67.85;102016.88;1714256;82;21099;-72
2022/10/12 05:37:14;;;;;;;27.95;13.43;;;;;;;3.37;67.79;102013.33;1698935;82;21488;-72
2022/10/12 05:39:59;;;;;;;25.23;13.90;;;;;;;3.42;67.84;102010.94;1696866;82;21056;-72
2022/10/12 05:42:44;;;;;;;26.37;14.85;;;;;;;3.55;67.99;102012.70;1701239;82;21160;-72
2022/10/12 05:45:29;;;;;;;27.13;14.50;;;;;;;3.72;67.99;102010.69;1716165;81;21410;-72
2022/10/12 05:48:14;;;;;;;26.07;14.40;;;;;;;3.86;68.06;102018.84;1716727;81;21076;-72
2022/10/12 05:50:59;;;;;;;25.10;12.93;;;;;;;3.96;68.06;102014.49;1717019;81;21104;-72
2022/10/12 05:53:44;;;;;;;28.12;14.07;;;;;;;4.06;68.10;102018.23;1718028;81;22183;-72
2022/10/12 05:56:30;;;;;;;25.27;13.80;;;;;;;4.16;68.11;102023.67;1715611;81;21109;-72
2022/10/12 05:59:15;;;;;;;24.23;13.18;;;;;;;4.24;68.18;102020.08;1717827;81;21029;-72
2022/10/12 06:02:00;;;;;;;23.07;14.45;;;;;;;4.34;68.25;102015.72;1712700;81;21155;-72
2022/10/12 06:04:45;;;;;;;25.62;12.75;;;;;;;4.45;68.31;102017.34;1717917;83;21060;-72
2022/10/12 06:07:30;;;;;;;25.60;13.83;;;;;;;4.54;68.28;102025.30;1718153;81;21102;-72
2022/10/12 06:10:15;;;;;;;24.07;13.45;;;;;;;4.62;68.35;102025.14;1717731;81;21544;-72
2022/10/12 06:13:01;;;;;;;23.40;13.00;;;;;;;4.71;68.42;102029.23;1718943;81;21603;-72
2022/10/12 06:15:47;;;;;;;25.62;13.62;;;;;;;4.81;68.48;102026.53;1716939;82;21580;-72
2022/10/12 06:18:31;;;;;;;26.20;13.60;;;;;;;4.87;68.51;102025.03;1704319;81;20925;-72
2022/10/12 06:21:16;;;;;;;21.48;13.13;;;;;;;4.95;68.57;102022.70;1693291;81;145238;-72
2022/10/12 06:24:01;;;;;;;24.43;12.53;;;;;;;5.01;68.57;102029.28;1681990;83;20965;-72
2022/10/12 06:26:46;;;;;;;29.23;13.22;;;;;;;5.08;68.63;102032.48;1685539;83;21284;-73
2022/10/12 06:29:31;;;;;;;23.80;12.33;;;;;;;5.15;68.66;102034.41;1675322;83;20961;-73
2022/10/12 06:32:16;;;;;;;23.00;12.58;;;;;;;5.23;68.71;102029.45;1680768;83;20965;-73
2022/10/12 06:35:01;;;;;;;25.17;12.43;;;;;;;5.28;68.75;102036.45;1684489;83;20958;-73
2022/10/12 06:37:50;;;;;;;23.47;12.37;;;;;;;5.33;68.80;102036.17;1683840;83;20902;-73
2022/10/12 06:40:35;;;;;;;25.40;12.37;;;;;;;5.39;68.87;102034.20;1660925;85;20985;-73
2022/10/12 06:43:21;;;;;;;22.07;11.78;;;;;;;5.46;68.89;102038.67;1680517;83;20980;-73
2022/10/12 06:46:07;;;;;;;23.73;11.95;;;;;;;5.55;68.91;102041.91;1660436;84;22148;-73
2022/10/12 06:48:52;;;;;;;23.50;11.75;;;;;;;5.61;68.92;102047.20;1663970;84;21128;-73
2022/10/12 06:51:37;;;;;;;23.73;12.35;;;;;;;5.69;68.97;102053.83;1663911;84;21049;-73
2022/10/12 06:54:22;;;;;;;19.30;11.45;;;;;;;5.73;69.03;102044.94;1661305;84;21140;-73
2022/10/12 06:57:07;;;;;;;20.52;13.18;;;;;;;5.75;69.07;102049.70;1657061;84;21073;-73
2022/10/12 06:59:52;;;;;;;24.77;14.03;;;;;;;5.82;69.14;102046.88;1653318;84;21125;-73
2022/10/12 07:02:37;;;;;;;25.90;14.43;;;;;;;5.91;69.18;102051.01;1657394;84;21062;-73
2022/10/12 07:05:23;;;;;;;23.83;14.65;;;;;;;5.97;69.19;102045.62;1674300;84;21091;-73
2022/10/12 07:08:08;;;;;;;24.98;12.93;;;;;;;6.05;69.21;102048.80;1654045;84;21573;-73
2022/10/12 07:11:01;;;;;;;33.88;14.83;;;;;;;6.14;69.24;102052.88;1650830;84;21042;-73
2022/10/12 07:13:46;;;;;;;26.42;14.55;;;;;;;6.22;69.28;102055.23;1659360;84;20977;-73
2022/10/12 07:16:31;;;;;;;26.12;13.70;;;;;;;6.30;69.32;102054.55;1659733;84;21053;-73
2022/10/12 07:19:16;;;;;;;31.95;14.73;;;;;;;6.39;69.36;102058.19;1655890;84;21303;-73
2022/10/12 07:22:01;;;;;;;23.67;14.03;;;;;;;6.47;69.37;102058.82;1647786;84;21048;-73
2022/10/12 07:24:46;;;;;;;31.37;15.72;;;;;;;6.56;69.39;102060.33;1656152;84;21057;-73
2022/10/12 07:27:31;;;;;;;32.53;16.60;;;;;;;6.66;69.42;102063.98;1657501;84;21578;-74
2022/10/12 07:30:16;;;;;;;32.85;17.52;;;;;;;6.73;69.47;102056.86;1646421;84;21429;-74
2022/10/12 07:33:01;;;;;;;37.65;17.95;;;;;;;6.81;69.49;102060.86;1654211;84;21041;-73
2022/10/12 07:35:54;;;;;;;34.10;17.65;;;;;;;6.88;69.52;102064.02;1660276;84;21053;-73
2022/10/12 07:38:39;;;;;;;35.17;18.25;;;;;;;6.97;69.52;102062.94;1656005;85;21372;-73
2022/10/12 07:41:24;;;;;;;30.17;17.85;;;;;;;7.04;69.53;102068.67;1653723;85;20928;-73
2022/10/12 07:44:10;;;;;;;28.85;17.50;;;;;;;7.11;69.61;102067.97;1645315;84;20953;-73
2022/10/12 07:46:55;;;;;;;36.00;18.20;;;;;;;7.17;69.60;102067.23;1668262;84;20945;-73
2022/10/12 07:49:40;;;;;;;35.30;19.00;;;;;;;7.23;69.64;102064.37;1668149;84;20918;-73
2022/10/12 07:52:27;;;;;;;34.30;18.42;;;;;;;7.32;69.67;102072.67;1660722;84;20957;-73
2022/10/12 07:55:11;;;;;;;;;;;;;;;7.40;69.70;102069.84;1661193;84;21434;-73
2022/10/12 07:57:56;;;;;;;37.38;18.45;;;;;;;7.47;69.96;102062.69;1662136;84;20437;-73
2022/10/12 08:00:41;;;;;;;33.60;19.45;;;;;;;7.55;69.80;102063.71;1656470;84;22231;-73
2022/10/12 08:03:26;;;;;;;36.23;19.07;;;;;;;7.64;69.87;102061.73;1668955;84;21134;-72
2022/10/12 08:06:16;;;;;;;39.03;18.15;;;;;;;7.75;69.89;102068.38;1655752;84;21116;-73
2022/10/12 08:09:02;;;;;;;33.33;20.57;;;;;;;7.83;69.90;102065.49;1639301;85;20982;-73
2022/10/12 08:11:47;;;;;;;;;;;;;;;7.90;69.92;102066.05;1664311;84;20945;-73
2022/10/12 08:14:32;;;;;;;33.90;16.75;;;;;;;8.00;70.10;102062.81;1662270;84;20172;-73
2022/10/12 08:17:17;;;;;;;28.12;16.27;;;;;;;8.08;69.99;102063.81;1663874;84;21098;-73
2022/10/12 08:20:03;;;;;;;34.55;17.12;;;;;;;8.15;69.96;102068.23;1659099;84;21089;-73
2022/10/12 08:22:48;;;;;;;35.65;17.95;;;;;;;8.23;70.00;102065.78;1664417;84;20964;-73
2022/10/12 08:25:34;;;;;;;33.95;17.30;;;;;;;8.30;70.02;102065.91;1669791;84;21218;-74
2022/10/12 08:28:19;;;;;;;35.30;17.37;;;;;;;8.39;70.02;102069.48;1666283;84;21236;-74
2022/10/12 08:31:12;;;;;;;31.60;17.40;;;;;;;8.46;70.06;102068.32;1661030;84;21072;-73
2022/10/12 08:33:58;;;;;;;38.02;19.20;;;;;;;8.53;70.09;102066.29;1654673;84;21123;-73
2022/10/12 08:36:43;;;;;;;34.13;16.97;;;;;;;8.61;70.10;102068.56;1661187;84;21099;-73
2022/10/12 08:39:28;;;;;;;33.02;16.27;;;;;;;8.70;70.10;102061.39;1664786;84;21056;-73
2022/10/12 08:42:24;;;;;;;34.30;16.75;;;;;;;8.78;70.14;102065.38;1666207;84;21133;-73
2022/10/12 08:45:43;;;;;;;33.58;17.20;;;;;;;8.85;70.21;102068.45;1647022;84;21071;-73
2022/10/12 08:48:36;;;;;;;33.92;17.40;;;;;;;8.91;70.21;102070.70;1658854;84;21120;-73
2022/10/12 08:51:26;;;;;;;40.00;17.75;;;;;;;8.99;70.26;102063.07;1658281;84;21054;-73
2022/10/12 08:54:15;;;;;;;36.93;18.50;;;;;;;9.09;70.25;102065.35;1655213;84;21116;-73
2022/10/12 08:57:00;;;;;;;33.13;17.70;;;;;;;9.18;70.26;102064.19;1656400;84;21048;-73
2022/10/12 08:59:46;;;;;;;37.65;18.55;;;;;;;9.25;70.26;102062.99;1660764;84;21081;-73
2022/10/12 09:02:51;;;;;;;35.05;17.82;;;;;;;9.36;70.26;102063.55;1659585;84;21065;-73
2022/10/12 09:05:48;;;;;;;38.75;18.17;;;;;;;9.43;70.30;102057.58;1664628;84;21140;-73
2022/10/12 09:09:06;;;;;;;39.18;17.52;;;;;;;9.53;70.35;102062.01;1654826;84;21073;-73
2022/10/12 09:11:59;;;;;;;29.30;17.35;;;;;;;9.62;70.38;102061.69;1655354;84;21092;-73
2022/10/12 09:14:47;;;;;;;34.23;17.87;;;;;;;9.74;70.43;102060.95;1659136;84;21079;-73
2022/10/12 09:17:52;;;;;;;35.80;17.10;;;;;;;9.84;70.38;102058.91;1652603;84;21085;-73
2022/10/12 09:20:45;;;;;;;42.17;17.40;;;;;;;9.95;70.41;102057.27;1647008;84;21052;-73
2022/10/12 09:23:35;;;;;;;34.45;18.20;;;;;;;10.06;70.43;102058.67;1658732;84;22256;-73
2022/10/12 09:26:38;;;;;;;31.77;16.80;;;;;;;10.10;70.45;102059.13;1658685;84;21108;-74
2022/10/12 09:29:30;;;;;;;35.90;16.60;;;;;;;10.15;70.49;102060.05;1662058;84;21698;-74
2022/10/12 09:32:35;;;;;;;36.20;17.95;;;;;;;10.24;70.54;102052.83;1663549;84;21061;-73
2022/10/12 09:35:20;;;;;;;39.15;17.12;;;;;;;10.33;70.54;102054.63;1652144;84;21541;-73
2022/10/12 09:38:08;;;;;;;32.58;17.05;;;;;;;10.45;70.52;102050.81;1648339;84;21069;-73
2022/10/12 09:40:52;;;;;;;28.95;15.08;;;;;;;10.56;70.56;102052.62;1651247;84;21100;-73
2022/10/12 09:43:39;;;;;;;30.08;14.70;;;;;;;10.67;70.56;102051.41;1646037;84;21067;-73
2022/10/12 09:47:00;;;;;;;;;;;;;;;10.79;70.58;102053.20;1653485;84;21644;-73
2022/10/12 09:49:51;;;;;;;35.90;16.23;;;;;;;10.91;70.62;102046.39;1663419;84;20244;-73
2022/10/12 09:52:43;;;;;;;34.90;15.90;;;;;;;11.04;70.53;102048.58;1661471;84;21068;-73
2022/10/12 09:55:28;;;;;;;34.95;16.97;;;;;;;11.19;70.61;102051.25;1664302;84;21580;-73
2022/10/12 09:58:19;;;;;;;39.48;15.58;;;;;;;11.33;70.64;102050.44;1662105;84;21126;-74
2022/10/12 10:01:22;;;;;;;30.88;15.50;;;;;;;11.45;70.61;102052.62;1663886;84;21548;-74
2022/10/12 10:04:18;;;;;;;32.78;16.27;;;;;;;11.58;70.59;102046.61;1663113;84;21116;-74
2022/10/12 10:07:29;;;;;;;33.55;16.23;;;;;;;11.71;70.65;102051.83;1651751;84;21140;-74
2022/10/12 10:10:24;;;;;;;32.63;15.25;;;;;;;11.83;70.67;102048.88;1663056;84;21045;-74
2022/10/12 10:13:12;;;;;;;36.75;15.63;;;;;;;11.96;70.63;102045.00;1663704;84;21120;-74
2022/10/12 10:16:09;;;;;;;30.43;14.45;;;;;;;12.05;70.62;102042.39;1661541;84;21131;-74
2022/10/12 10:18:59;;;;;;;28.55;14.40;;;;;;;12.16;70.62;102047.15;1662613;84;21040;-74
2022/10/12 10:21:44;;;;;;;31.68;13.95;;;;;;;12.26;70.59;102041.97;1662190;84;21077;-74
2022/10/12 10:24:31;;;;;;;29.02;13.90;;;;;;;12.38;70.61;102045.42;1658987;84;21068;-74
2022/10/12 10:27:38;;;;;;;23.92;12.95;;;;;;;12.49;70.62;102039.33;1663134;84;21122;-74
2022/10/12 10:30:25;;;;;;;24.47;12.15;;;;;;;12.59;70.48;102046.24;1663489;84;21113;-74
2022/10/12 10:33:18;;;;;;;19.23;10.58;;;;;;;12.69;70.56;102035.84;1657127;84;21108;-74
2022/10/12 10:36:25;;;;;;;24.18;10.48;;;;;;;12.75;70.48;102026.75;1665035;84;21072;-74
2022/10/12 10:39:27;;;;;;;26.37;10.43;;;;;;;12.81;70.46;102037.13;1663830;84;21096;-74
2022/10/12 10:42:23;;;;;;;22.95;9.65;;;;;;;12.87;70.45;102028.02;1663739;84;21093;-74
2022/10/12 10:45:11;;;;;;;20.72;9.10;;;;;;;12.96;70.44;102025.83;1660718;84;21088;-74
2022/10/12 10:48:00;;;;;;;16.85;7.80;;;;;;;13.02;70.37;102031.84;1645583;85;21060;-74
2022/10/12 10:50:56;;;;;;;23.10;7.83;;;;;;;13.09;70.35;102027.48;1667193;85;21068;-74
2022/10/12 10:53:48;;;;;;;15.78;7.22;;;;;;;13.13;70.32;102027.91;1665347;85;21148;-74
2022/10/12 10:56:33;;;;;;;13.40;6.10;;;;;;;13.21;70.35;102028.34;1664898;85;21115;-74
2022/10/12 10:59:30;;;;;;;19.85;7.05;;;;;;;13.27;70.22;102023.98;1659954;85;21060;-73
2022/10/12 11:02:23;;;;;;;14.30;5.53;;;;;;;13.30;70.25;102022.23;1657747;84;21443;-75
2022/10/12 11:05:37;;;;;;;16.02;6.60;;;;;;;13.31;70.11;102019.20;1664895;85;21101;-74
2022/10/12 11:08:26;;;;;;;13.72;5.78;;;;;;;13.36;70.15;102020.91;1662585;85;21418;-74
2022/10/12 11:11:16;;;;;;;16.10;6.15;;;;;;;13.41;70.12;102018.30;1665015;85;20997;-74
2022/10/12 11:14:16;;;;;;;17.32;5.83;;;;;;;13.46;70.09;102022.59;1667746;85;21423;-74
2022/10/12 11:17:06;;;;;;;15.20;6.45;;;;;;;13.57;70.07;102016.87;1666954;85;20993;-74
2022/10/12 11:20:23;;;;;;;14.33;5.83;;;;;;;13.66;70.05;102007.29;1665621;85;21595;-74
2022/10/12 11:23:19;;;;;;;16.40;5.33;;;;;;;13.79;70.06;102010.23;1649063;85;21082;-74
2022/10/12 11:26:27;;;;;;;9.05;3.50;;;;;;;13.77;69.84;102005.05;1650944;85;21128;-75
2022/10/12 11:29:13;;;;;;;9.83;3.47;;;;;;;13.77;69.89;102002.45;1660797;85;20917;-74
2022/10/12 11:32:03;;;;;;;9.45;2.25;;;;;;;13.72;69.75;102000.75;1657364;85;21411;-74
2022/10/12 11:34:52;;;;;;;7.75;2.67;;;;;;;13.66;69.72;101994.30;1665375;85;21429;-74
2022/10/12 11:37:45;;;;;;;9.55;2.50;;;;;;;13.61;69.63;101991.72;1659490;85;20973;-74
2022/10/12 11:40:47;;;;;;;7.75;2.65;;;;;;;13.58;69.62;101995.64;1659945;85;20916;-75
2022/10/12 11:43:40;;;;;;;4.75;2.17;;;;;;;13.55;69.56;101989.16;1652838;85;21120;-73
2022/10/12 11:46:58;;;;;;;10.32;3.02;;;;;;;13.48;69.39;101986.20;1653642;85;21330;-74
2022/10/12 11:49:51;;;;;;;7.25;3.35;;;;;;;13.42;69.36;101980.61;1662097;84;21117;-75
2022/10/12 11:52:44;;;;;;;10.00;2.70;;;;;;;13.38;69.29;101980.20;1656978;84;21082;-75
2022/10/12 11:55:34;;;;;;;6.25;2.62;;;;;;;13.35;69.26;101977.62;1654427;84;20993;-75
2022/10/12 11:58:34;;;;;;;6.62;2.42;;;;;;;13.36;69.21;101980.64;1652706;84;21097;-75
2022/10/12 12:01:48;;;;;;;5.60;2.27;;;;;;;13.40;69.17;101978.45;1666544;84;21600;-75
2022/10/12 12:04:36;;;;;;;5.10;2.10;;;;;;;13.42;69.12;101979.31;1649812;84;21063;-75
2022/10/12 12:07:48;;;;;;;7.83;2.47;;;;;;;13.47;69.06;101978.84;1666272;84;21120;-75
2022/10/12 12:10:39;;;;;;;9.08;2.45;;;;;;;13.52;68.98;101970.98;1653224;84;21009;-75
2022/10/12 12:13:26;;;;;;;5.28;2.33;;;;;;;13.56;68.92;101976.59;1661572;84;21084;-75
2022/10/12 12:16:19;;;;;;;15.38;2.33;;;;;;;13.59;68.84;101968.34;1647429;84;21115;-75
2022/10/12 12:19:37;;;;;;;8.53;2.65;;;;;;;13.64;68.79;101966.15;1659758;84;20988;-74
2022/10/12 12:22:32;;;;;;;8.43;1.82;;;;;;;13.66;68.73;101966.56;1659017;84;21229;-74
2022/10/12 12:25:32;;;;;;;4.15;1.75;;;;;;;13.69;68.66;101963.08;1649715;84;21538;-74
2022/10/12 12:28:23;;;;;;;6.83;2.15;;;;;;;13.74;68.58;101956.97;1659828;84;21347;-75
2022/10/12 12:31:23;;;;;;;7.30;1.95;;;;;;;13.77;68.56;101959.55;1658192;84;21524;-77
2022/10/12 12:34:16;;;;;;;7.42;2.85;;;;;;;13.83;68.48;101958.20;1651985;84;21568;-77
2022/10/12 12:37:11;;;;;;;6.20;2.30;;;;;;;13.85;68.43;101958.20;1662773;84;21108;-77
2022/10/12 12:39:58;;;;;;;3.77;2.00;;;;;;;13.89;68.36;101961.20;1655205;84;21126;-77
2022/10/12 12:42:43;;;;;;;13.48;2.87;;;;;;;13.88;68.25;101955.13;1647577;84;21072;-77
2022/10/12 12:45:36;;;;;;;15.15;3.95;;;;;;;13.93;68.24;101956.83;1648679;84;21133;-77
2022/10/12 12:48:43;;;;;;;13.35;4.60;;;;;;;13.95;68.17;101958.55;1660630;84;21364;-74
2022/10/12 12:51:38;;;;;;;13.95;5.37;;;;;;;13.96;68.15;101958.11;1661150;84;21097;-75
2022/10/12 12:54:24;;;;;;;9.75;4.58;;;;;;;13.94;68.09;101955.52;1656677;84;21099;-75
2022/10/12 12:57:46;;;;;;;10.78;4.60;;;;;;;13.96;68.00;101956.81;1651914;84;21577;-75
2022/10/12 13:00:48;;;;;;;14.90;4.30;;;;;;;13.96;67.97;101963.31;1658000;84;21398;-75
2022/10/12 13:04:11;;;;;;;18.75;4.58;;;;;;;13.93;67.89;101959.00;1653931;84;21609;-75
2022/10/12 13:07:26;;;;;;;12.80;4.37;;;;;;;13.92;67.83;101954.67;1660373;84;21407;-75